sensor_id;sensor_type;location;lat;lon;timestamp;pressure;altitude;pressure_sealevel;temperature;humidity
69911;BME280;63555;49.920;17.868;2023-03-03T00:00:57;98976.00;;;-4.70;71.54
69911;BME280;63555;49.920;17.868;2023-03-03T00:05:58;98981.16;;;-4.73;71.46
69911;BME280;63555;49.920;17.868;2023-03-03T00:10:58;98977.78;;;-4.78;71.63
69911;BME280;63555;49.920;17.868;2023-03-03T00:16:12;98979.53;;;-4.82;71.64
69911;BME280;63555;49.920;17.868;2023-03-03T00:21:46;98976.19;;;-4.87;72.09
69911;BME280;63555;49.920;17.868;2023-03-03T00:26:50;98976.22;;;-4.92;71.83
69911;BME280;63555;49.920;17.868;2023-03-03T00:31:51;98981.44;;;-4.98;72.17
69911;BME280;63555;49.920;17.868;2023-03-03T00:36:54;98995.19;;;-5.02;72.09
69911;BME280;63555;49.920;17.868;2023-03-03T00:41:56;98988.41;;;-5.12;72.03
69911;BME280;63555;49.920;17.868;2023-03-03T00:52:20;98980.75;;;-5.18;72.18
69911;BME280;63555;49.920;17.868;2023-03-03T00:57:22;98971.34;;;-5.22;72.55
69911;BME280;63555;49.920;17.868;2023-03-03T01:02:22;98964.56;;;-5.29;72.78
69911;BME280;63555;49.920;17.868;2023-03-03T01:07:22;98967.19;;;-5.35;72.64
69911;BME280;63555;49.920;17.868;2023-03-03T01:12:23;98954.34;;;-5.35;72.77
69911;BME280;63555;49.920;17.868;2023-03-03T01:17:23;98945.78;;;-5.36;72.76
69911;BME280;63555;49.920;17.868;2023-03-03T01:22:24;98950.94;;;-5.39;72.89
69911;BME280;63555;49.920;17.868;2023-03-03T01:27:24;98936.47;;;-5.48;73.32
69911;BME280;63555;49.920;17.868;2023-03-03T01:32:25;98924.53;;;-5.55;73.38
69911;BME280;63555;49.920;17.868;2023-03-03T01:37:26;98931.44;;;-5.60;73.70
69911;BME280;63555;49.920;17.868;2023-03-03T01:42:26;98930.59;;;-5.62;73.81
69911;BME280;63555;49.920;17.868;2023-03-03T01:47:32;98922.91;;;-5.63;73.27
69911;BME280;63555;49.920;17.868;2023-03-03T01:52:36;98925.50;;;-5.68;73.00
69911;BME280;63555;49.920;17.868;2023-03-03T01:57:41;98918.69;;;-5.72;73.55
69911;BME280;63555;49.920;17.868;2023-03-03T02:02:43;98923.03;;;-5.79;73.54
69911;BME280;63555;49.920;17.868;2023-03-03T02:07:45;98927.34;;;-5.85;73.47
69911;BME280;63555;49.920;17.868;2023-03-03T02:12:52;98916.25;;;-5.87;74.36
69911;BME280;63555;49.920;17.868;2023-03-03T02:18:01;98907.69;;;-5.88;74.44
69911;BME280;63555;49.920;17.868;2023-03-03T02:23:04;98905.94;;;-5.84;73.65
69911;BME280;63555;49.920;17.868;2023-03-03T02:28:06;98901.69;;;-5.85;74.75
69911;BME280;63555;49.920;17.868;2023-03-03T02:33:07;98904.22;;;-5.84;74.11
69911;BME280;63555;49.920;17.868;2023-03-03T02:43:22;98906.03;;;-5.92;74.32
69911;BME280;63555;49.920;17.868;2023-03-03T02:48:25;98910.38;;;-5.98;73.75
69911;BME280;63555;49.920;17.868;2023-03-03T02:53:26;98917.28;;;-6.06;74.17
69911;BME280;63555;49.920;17.868;2023-03-03T02:58:26;98923.25;;;-6.07;74.43
69911;BME280;63555;49.920;17.868;2023-03-03T03:03:27;98927.53;;;-6.10;74.68
69911;BME280;63555;49.920;17.868;2023-03-03T03:08:27;98923.28;;;-6.14;74.10
69911;BME280;63555;49.920;17.868;2023-03-03T03:13:27;98930.16;;;-6.19;74.35
69911;BME280;63555;49.920;17.868;2023-03-03T03:18:29;98942.13;;;-6.19;74.37
69911;BME280;63555;49.920;17.868;2023-03-03T03:23:29;98936.16;;;-6.20;74.98
69911;BME280;63555;49.920;17.868;2023-03-03T03:28:30;98943.00;;;-6.22;74.61
69911;BME280;63555;49.920;17.868;2023-03-03T03:33:31;98935.34;;;-6.28;74.39
69911;BME280;63555;49.920;17.868;2023-03-03T03:38:32;98926.81;;;-6.30;74.95
69911;BME280;63555;49.920;17.868;2023-03-03T03:43:33;98917.41;;;-6.34;74.74
69911;BME280;63555;49.920;17.868;2023-03-03T03:48:34;98927.72;;;-6.38;74.86
69911;BME280;63555;49.920;17.868;2023-03-03T03:53:34;98932.84;;;-6.43;74.83
69911;BME280;63555;49.920;17.868;2023-03-03T03:58:35;98938.88;;;-6.47;74.48
69911;BME280;63555;49.920;17.868;2023-03-03T04:03:35;98921.75;;;-6.45;75.80
69911;BME280;63555;49.920;17.868;2023-03-03T04:08:35;98925.94;;;-6.30;76.13
69911;BME280;63555;49.920;17.868;2023-03-03T04:13:36;98922.41;;;-6.11;76.10
69911;BME280;63555;49.920;17.868;2023-03-03T04:18:36;98920.59;;;-5.94;75.66
69911;BME280;63555;49.920;17.868;2023-03-03T04:23:37;98916.16;;;-5.78;75.36
69911;BME280;63555;49.920;17.868;2023-03-03T04:28:37;98929.66;;;-5.52;75.96
69911;BME280;63555;49.920;17.868;2023-03-03T04:33:37;98928.38;;;-5.06;77.23
69911;BME280;63555;49.920;17.868;2023-03-03T04:38:38;98935.47;;;-4.52;76.64
69911;BME280;63555;49.920;17.868;2023-03-03T04:43:38;98934.03;;;-4.08;76.06
69911;BME280;63555;49.920;17.868;2023-03-03T04:48:38;98943.84;;;-3.74;76.31
69911;BME280;63555;49.920;17.868;2023-03-03T04:53:39;98934.81;;;-3.47;75.78
69911;BME280;63555;49.920;17.868;2023-03-03T04:58:39;98943.88;;;-3.24;75.97
69911;BME280;63555;49.920;17.868;2023-03-03T05:03:40;98947.03;;;-3.08;76.03
69911;BME280;63555;49.920;17.868;2023-03-03T05:08:40;98963.09;;;-2.92;76.15
69911;BME280;63555;49.920;17.868;2023-03-03T05:13:42;98952.53;;;-2.80;76.18
69911;BME280;63555;49.920;17.868;2023-03-03T05:18:42;98949.72;;;-2.68;76.47
69911;BME280;63555;49.920;17.868;2023-03-03T05:23:44;98946.97;;;-2.57;76.14
69911;BME280;63555;49.920;17.868;2023-03-03T05:28:44;98951.91;;;-2.46;76.32
69911;BME280;63555;49.920;17.868;2023-03-03T05:33:45;98962.94;;;-2.38;76.14
69911;BME280;63555;49.920;17.868;2023-03-03T05:38:45;98964.59;;;-2.36;76.31
69911;BME280;63555;49.920;17.868;2023-03-03T05:43:46;98979.09;;;-2.29;76.21
69911;BME280;63555;49.920;17.868;2023-03-03T05:48:46;98984.16;;;-2.24;76.34
69911;BME280;63555;49.920;17.868;2023-03-03T05:53:47;98995.22;;;-2.17;76.42
69911;BME280;63555;49.920;17.868;2023-03-03T05:58:47;98988.22;;;-2.12;76.63
69911;BME280;63555;49.920;17.868;2023-03-03T06:03:47;98996.88;;;-2.15;76.80
69911;BME280;63555;49.920;17.868;2023-03-03T06:08:47;99003.81;;;-2.17;77.20
69911;BME280;63555;49.920;17.868;2023-03-03T06:13:48;99012.34;;;-2.13;77.49
69911;BME280;63555;49.920;17.868;2023-03-03T06:18:48;99014.88;;;-2.10;77.96
69911;BME280;63555;49.920;17.868;2023-03-03T06:23:49;99028.53;;;-2.05;77.72
69911;BME280;63555;49.920;17.868;2023-03-03T06:28:49;99044.75;;;-1.99;78.11
69911;BME280;63555;49.920;17.868;2023-03-03T06:33:53;99049.91;;;-1.97;78.41
69911;BME280;63555;49.920;17.868;2023-03-03T06:38:53;99054.06;;;-1.90;78.37
69911;BME280;63555;49.920;17.868;2023-03-03T06:43:53;99048.72;;;-1.82;78.13
69911;BME280;63555;49.920;17.868;2023-03-03T06:48:54;99056.41;;;-1.79;78.53
69911;BME280;63555;49.920;17.868;2023-03-03T06:53:56;99064.06;;;-1.73;78.23
69911;BME280;63555;49.920;17.868;2023-03-03T06:58:59;99060.44;;;-1.65;78.33
69911;BME280;63555;49.920;17.868;2023-03-03T07:04:00;99066.28;;;-1.56;78.05
69911;BME280;63555;49.920;17.868;2023-03-03T07:09:00;99059.19;;;-1.47;78.37
69911;BME280;63555;49.920;17.868;2023-03-03T07:14:00;99066.69;;;-1.36;78.09
69911;BME280;63555;49.920;17.868;2023-03-03T07:19:01;99052.69;;;-1.27;77.96
69911;BME280;63555;49.920;17.868;2023-03-03T07:29:24;99023.56;;;-1.00;77.97
69911;BME280;63555;49.920;17.868;2023-03-03T07:34:34;99032.75;;;-0.88;77.52
69911;BME280;63555;49.920;17.868;2023-03-03T07:39:38;99005.78;;;-0.78;77.78
69911;BME280;63555;49.920;17.868;2023-03-03T07:44:40;99020.28;;;-0.71;77.87
69911;BME280;63555;49.920;17.868;2023-03-03T07:49:40;99009.59;;;-0.59;77.75
69911;BME280;63555;49.920;17.868;2023-03-03T07:54:44;99038.63;;;-0.48;77.72
69911;BME280;63555;49.920;17.868;2023-03-03T08:05:36;99005.59;;;-0.40;77.65
69911;BME280;63555;49.920;17.868;2023-03-03T08:10:53;99012.31;;;-0.33;77.54
69911;BME280;63555;49.920;17.868;2023-03-03T08:15:59;99018.00;;;-0.20;77.51
69911;BME280;63555;49.920;17.868;2023-03-03T08:21:12;99024.78;;;-0.16;77.79
69911;BME280;63555;49.920;17.868;2023-03-03T08:26:13;99005.66;;;-0.12;77.51
69911;BME280;63555;49.920;17.868;2023-03-03T08:31:14;99016.25;;;-0.19;77.73
69911;BME280;63555;49.920;17.868;2023-03-03T08:36:14;99022.16;;;-0.14;77.98
69911;BME280;63555;49.920;17.868;2023-03-03T08:41:15;99020.00;;;0.02;77.85
69911;BME280;63555;49.920;17.868;2023-03-03T08:46:15;99029.78;;;0.21;77.18
69911;BME280;63555;49.920;17.868;2023-03-03T08:51:15;99047.69;;;0.30;76.89
69911;BME280;63555;49.920;17.868;2023-03-03T08:56:16;99051.22;;;0.28;76.96
69911;BME280;63555;49.920;17.868;2023-03-03T09:01:16;99048.88;;;0.19;77.03
69911;BME280;63555;49.920;17.868;2023-03-03T09:06:16;99063.06;;;0.07;78.02
69911;BME280;63555;49.920;17.868;2023-03-03T09:11:23;99049.09;;;0.11;81.99
69911;BME280;63555;49.920;17.868;2023-03-03T09:16:23;99049.06;;;0.13;83.84
69911;BME280;63555;49.920;17.868;2023-03-03T09:21:30;99054.03;;;0.20;85.07
69911;BME280;63555;49.920;17.868;2023-03-03T09:26:48;99062.84;;;0.15;86.33
69911;BME280;63555;49.920;17.868;2023-03-03T09:31:58;99055.09;;;0.13;87.18
69911;BME280;63555;49.920;17.868;2023-03-03T09:37:00;99048.13;;;0.15;88.15
69911;BME280;63555;49.920;17.868;2023-03-03T09:52:21;99052.16;;;0.25;89.27
69911;BME280;63555;49.920;17.868;2023-03-03T10:03:25;99049.66;;;0.22;89.87
69911;BME280;63555;49.920;17.868;2023-03-03T10:14:12;99044.56;;;0.47;90.70
69911;BME280;63555;49.920;17.868;2023-03-03T10:19:41;99051.28;;;0.54;90.60
69911;BME280;63555;49.920;17.868;2023-03-03T10:25:19;99046.66;;;0.64;90.75
69911;BME280;63555;49.920;17.868;2023-03-03T10:36:15;99057.44;;;0.78;89.82
69911;BME280;63555;49.920;17.868;2023-03-03T11:08:41;99075.66;;;0.77;87.47
69911;BME280;63555;49.920;17.868;2023-03-03T11:39:54;99072.88;;;0.83;86.66
69911;BME280;63555;49.920;17.868;2023-03-03T11:45:04;99076.47;;;0.79;85.71
69911;BME280;63555;49.920;17.868;2023-03-03T11:55:32;99070.75;;;0.68;85.89
69911;BME280;63555;49.920;17.868;2023-03-03T12:43:55;99044.63;;;0.74;84.15
69911;BME280;63555;49.920;17.868;2023-03-03T12:48:58;99040.19;;;0.77;84.59
69911;BME280;63555;49.920;17.868;2023-03-03T12:54:13;99036.63;;;0.80;84.39
69911;BME280;63555;49.920;17.868;2023-03-03T13:15:22;99016.50;;;0.88;84.26
69911;BME280;63555;49.920;17.868;2023-03-03T13:20:44;99024.78;;;0.99;84.10
69911;BME280;63555;49.920;17.868;2023-03-03T13:25:52;99032.47;;;1.02;83.53
69911;BME280;63555;49.920;17.868;2023-03-03T13:31:02;99025.38;;;1.07;83.73
69911;BME280;63555;49.920;17.868;2023-03-03T13:36:14;99022.13;;;1.27;83.63
69911;BME280;63555;49.920;17.868;2023-03-03T13:47:00;99026.94;;;1.63;82.86
69911;BME280;63555;49.920;17.868;2023-03-03T13:52:05;99017.06;;;1.72;82.24
69911;BME280;63555;49.920;17.868;2023-03-03T13:57:43;99016.03;;;1.78;81.72
69911;BME280;63555;49.920;17.868;2023-03-03T14:03:20;99011.72;;;1.77;81.49
69911;BME280;63555;49.920;17.868;2023-03-03T14:19:17;98997.28;;;1.68;81.88
69911;BME280;63555;49.920;17.868;2023-03-03T14:24:21;98998.47;;;1.59;80.63
69911;BME280;63555;49.920;17.868;2023-03-03T14:34:36;99000.13;;;1.37;80.58
69911;BME280;63555;49.920;17.868;2023-03-03T14:39:43;99003.66;;;1.35;81.02
69911;BME280;63555;49.920;17.868;2023-03-03T14:44:54;98997.78;;;1.30;80.41
69911;BME280;63555;49.920;17.868;2023-03-03T14:49:56;98992.06;;;1.20;80.40
69911;BME280;63555;49.920;17.868;2023-03-03T15:01:13;98994.47;;;1.00;80.04
69911;BME280;63555;49.920;17.868;2023-03-03T15:06:28;98996.47;;;0.91;80.19
69911;BME280;63555;49.920;17.868;2023-03-03T15:11:32;98989.66;;;0.89;80.02
69911;BME280;63555;49.920;17.868;2023-03-03T15:16:33;98999.13;;;0.90;80.34
69911;BME280;63555;49.920;17.868;2023-03-03T15:21:43;99003.47;;;0.89;79.75
69911;BME280;63555;49.920;17.868;2023-03-03T15:27:05;98998.59;;;0.79;79.98
69911;BME280;63555;49.920;17.868;2023-03-03T15:32:16;98991.81;;;0.75;79.74
69911;BME280;63555;49.920;17.868;2023-03-03T15:37:47;98995.56;;;0.66;79.63
69911;BME280;63555;49.920;17.868;2023-03-03T15:42:52;98988.00;;;0.58;79.66
69911;BME280;63555;49.920;17.868;2023-03-03T16:04:07;98994.19;;;0.26;79.75
69911;BME280;63555;49.920;17.868;2023-03-03T16:20:11;99005.13;;;0.08;79.56
69911;BME280;63555;49.920;17.868;2023-03-03T16:31:07;99014.03;;;-0.02;79.70
69911;BME280;63555;49.920;17.868;2023-03-03T16:46:44;99021.31;;;-0.15;80.03
69911;BME280;63555;49.920;17.868;2023-03-03T16:51:49;99020.41;;;-0.14;79.79
69911;BME280;63555;49.920;17.868;2023-03-03T16:57:17;99023.06;;;-0.15;79.66
69911;BME280;63555;49.920;17.868;2023-03-03T17:02:43;99004.31;;;-0.25;79.68
69911;BME280;63555;49.920;17.868;2023-03-03T17:18:37;99012.06;;;-0.23;79.77
69911;BME280;63555;49.920;17.868;2023-03-03T17:39:12;99025.56;;;-0.12;79.80
69911;BME280;63555;49.920;17.868;2023-03-03T17:44:33;99031.59;;;-0.12;79.98
69911;BME280;63555;49.920;17.868;2023-03-03T18:00:31;99046.38;;;-0.15;79.75
69911;BME280;63555;49.920;17.868;2023-03-03T18:21:48;99041.97;;;-0.12;79.87
69911;BME280;63555;49.920;17.868;2023-03-03T18:26:53;99040.00;;;-0.04;79.80
69911;BME280;63555;49.920;17.868;2023-03-03T18:36:59;99032.78;;;0.08;79.56
69911;BME280;63555;49.920;17.868;2023-03-03T18:53:17;99023.09;;;0.14;79.61
69911;BME280;63555;49.920;17.868;2023-03-03T19:08:52;99017.69;;;-0.09;79.21
69911;BME280;63555;49.920;17.868;2023-03-03T19:19:15;99019.03;;;-0.25;79.35
69911;BME280;63555;49.920;17.868;2023-03-03T19:24:32;99010.94;;;-0.46;79.24
69911;BME280;63555;49.920;17.868;2023-03-03T19:29:46;99003.03;;;-0.72;78.99
69911;BME280;63555;49.920;17.868;2023-03-03T19:35:07;99008.97;;;-1.03;78.83
69911;BME280;63555;49.920;17.868;2023-03-03T19:40:26;99009.59;;;-1.29;79.56
69911;BME280;63555;49.920;17.868;2023-03-03T19:56:08;99010.16;;;-1.51;80.78
69911;BME280;63555;49.920;17.868;2023-03-03T20:16:54;99001.25;;;-1.40;80.61
69911;BME280;63555;49.920;17.868;2023-03-03T20:22:11;99001.16;;;-1.35;80.85
69911;BME280;63555;49.920;17.868;2023-03-03T20:27:18;99006.94;;;-1.25;81.14
69911;BME280;63555;49.920;17.868;2023-03-03T20:38:21;99007.38;;;-1.08;80.99
69911;BME280;63555;49.920;17.868;2023-03-03T21:04:37;99010.31;;;-0.86;80.86
69911;BME280;63555;49.920;17.868;2023-03-03T21:09:38;99008.44;;;-0.81;80.43
69911;BME280;63555;49.920;17.868;2023-03-03T21:14:38;98995.38;;;-0.77;80.54
69911;BME280;63555;49.920;17.868;2023-03-03T21:19:39;98987.66;;;-0.78;80.52
69911;BME280;63555;49.920;17.868;2023-03-03T21:30:01;98982.47;;;-0.78;80.40
69911;BME280;63555;49.920;17.868;2023-03-03T21:35:18;98974.69;;;-0.77;80.22
69911;BME280;63555;49.920;17.868;2023-03-03T21:40:26;98968.66;;;-0.77;80.42
69911;BME280;63555;49.920;17.868;2023-03-03T21:45:27;98966.06;;;-0.77;80.02
69911;BME280;63555;49.920;17.868;2023-03-03T21:50:29;98963.63;;;-0.83;80.23
69911;BME280;63555;49.920;17.868;2023-03-03T21:55:31;98949.44;;;-1.03;80.11
69911;BME280;63555;49.920;17.868;2023-03-03T22:00:32;98961.84;;;-1.15;80.15
69911;BME280;63555;49.920;17.868;2023-03-03T22:05:32;98951.00;;;-1.30;80.47
69911;BME280;63555;49.920;17.868;2023-03-03T22:10:32;98952.00;;;-1.35;80.53
69911;BME280;63555;49.920;17.868;2023-03-03T22:15:33;98943.47;;;-1.39;80.82
69911;BME280;63555;49.920;17.868;2023-03-03T22:20:33;98943.50;;;-1.40;80.62
69911;BME280;63555;49.920;17.868;2023-03-03T22:25:33;98930.75;;;-1.48;80.35
69911;BME280;63555;49.920;17.868;2023-03-03T22:30:35;98932.06;;;-1.66;80.09
69911;BME280;63555;49.920;17.868;2023-03-03T22:35:35;98920.63;;;-1.94;79.46
69911;BME280;63555;49.920;17.868;2023-03-03T22:40:35;98922.06;;;-2.19;79.84
69911;BME280;63555;49.920;17.868;2023-03-03T22:45:36;98925.88;;;-2.36;80.20
69911;BME280;63555;49.920;17.868;2023-03-03T22:50:37;98917.59;;;-2.51;80.55
69911;BME280;63555;49.920;17.868;2023-03-03T22:55:39;98902.34;;;-2.65;80.46
69911;BME280;63555;49.920;17.868;2023-03-03T23:00:40;98916.44;;;-2.81;80.21
69911;BME280;63555;49.920;17.868;2023-03-03T23:05:43;98908.09;;;-2.94;80.62
69911;BME280;63555;49.920;17.868;2023-03-03T23:10:44;98901.56;;;-3.12;80.50
69911;BME280;63555;49.920;17.868;2023-03-03T23:15:44;98895.72;;;-3.22;80.93
69911;BME280;63555;49.920;17.868;2023-03-03T23:20:45;98888.97;;;-3.29;81.25
69911;BME280;63555;49.920;17.868;2023-03-03T23:25:45;98881.31;;;-3.33;81.47
69911;BME280;63555;49.920;17.868;2023-03-03T23:30:46;98876.25;;;-3.38;81.59
69911;BME280;63555;49.920;17.868;2023-03-03T23:35:46;98875.41;;;-3.38;81.68
69911;BME280;63555;49.920;17.868;2023-03-03T23:40:48;98866.94;;;-3.46;81.63
69911;BME280;63555;49.920;17.868;2023-03-03T23:45:49;98861.88;;;-3.53;81.48
69911;BME280;63555;49.920;17.868;2023-03-03T23:50:49;98855.13;;;-3.60;81.53
69911;BME280;63555;49.920;17.868;2023-03-03T23:55:49;98848.31;;;-3.64;81.86
